sensor_id;sensor_type;location;lat;lon;timestamp;temperature;humidity
64869;DHT22;51349;52.424;10.840;2023-02-28T00:04:04;-2.30;99.90
64869;DHT22;51349;52.424;10.840;2023-02-28T00:09:04;-2.40;99.90
64869;DHT22;51349;52.424;10.840;2023-02-28T00:14:05;-2.30;99.90
64869;DHT22;51349;52.424;10.840;2023-02-28T00:19:06;-2.40;99.90
64869;DHT22;51349;52.424;10.840;2023-02-28T00:24:09;-2.40;99.90
64869;DHT22;51349;52.424;10.840;2023-02-28T00:29:10;-2.50;99.90
64869;DHT22;51349;52.424;10.840;2023-02-28T00:34:10;-2.50;99.90
64869;DHT22;51349;52.424;10.840;2023-02-28T00:39:11;-2.40;99.90
64869;DHT22;51349;52.424;10.840;2023-02-28T00:44:12;-2.30;99.90
64869;DHT22;51349;52.424;10.840;2023-02-28T00:49:12;-2.50;99.90
64869;DHT22;51349;52.424;10.840;2023-02-28T00:54:13;-2.60;99.90
64869;DHT22;51349;52.424;10.840;2023-02-28T00:59:15;-2.50;99.90
64869;DHT22;51349;52.424;10.840;2023-02-28T01:04:16;-2.50;99.90
64869;DHT22;51349;52.424;10.840;2023-02-28T01:09:17;-2.50;99.90
64869;DHT22;51349;52.424;10.840;2023-02-28T01:14:18;-2.40;99.90
64869;DHT22;51349;52.424;10.840;2023-02-28T01:19:19;-2.30;99.90
64869;DHT22;51349;52.424;10.840;2023-02-28T01:24:19;-2.30;99.90
64869;DHT22;51349;52.424;10.840;2023-02-28T01:29:20;-2.30;99.90
64869;DHT22;51349;52.424;10.840;2023-02-28T01:34:20;-2.20;99.90
64869;DHT22;51349;52.424;10.840;2023-02-28T01:39:21;-2.30;99.90
64869;DHT22;51349;52.424;10.840;2023-02-28T01:50:19;-2.30;99.90
64869;DHT22;51349;52.424;10.840;2023-02-28T01:55:22;-2.40;99.90
64869;DHT22;51349;52.424;10.840;2023-02-28T02:00:25;-2.50;99.90
64869;DHT22;51349;52.424;10.840;2023-02-28T02:05:30;-2.50;99.90
64869;DHT22;51349;52.424;10.840;2023-02-28T02:10:44;-2.50;99.90
64869;DHT22;51349;52.424;10.840;2023-02-28T02:16:16;-2.60;99.90
64869;DHT22;51349;52.424;10.840;2023-02-28T02:32:03;-2.80;99.90
64869;DHT22;51349;52.424;10.840;2023-02-28T02:37:15;-2.90;99.90
64869;DHT22;51349;52.424;10.840;2023-02-28T02:42:51;-2.80;99.90
64869;DHT22;51349;52.424;10.840;2023-02-28T02:48:00;-2.90;99.90
64869;DHT22;51349;52.424;10.840;2023-02-28T02:53:03;-2.80;99.90
64869;DHT22;51349;52.424;10.840;2023-02-28T02:58:16;-2.80;99.90
64869;DHT22;51349;52.424;10.840;2023-02-28T03:03:20;-2.80;99.90
64869;DHT22;51349;52.424;10.840;2023-02-28T03:08:33;-2.90;99.90
64869;DHT22;51349;52.424;10.840;2023-02-28T03:19:33;-3.10;99.90
64869;DHT22;51349;52.424;10.840;2023-02-28T03:25:02;-3.10;99.90
64869;DHT22;51349;52.424;10.840;2023-02-28T03:30:03;-3.10;99.90
64869;DHT22;51349;52.424;10.840;2023-02-28T03:35:16;-3.20;99.90
64869;DHT22;51349;52.424;10.840;2023-02-28T03:40:25;-3.20;99.90
64869;DHT22;51349;52.424;10.840;2023-02-28T03:45:31;-3.30;99.90
64869;DHT22;51349;52.424;10.840;2023-02-28T03:50:59;-3.40;99.90
64869;DHT22;51349;52.424;10.840;2023-02-28T03:56:20;-3.40;99.90
64869;DHT22;51349;52.424;10.840;2023-02-28T04:01:30;-3.50;99.90
64869;DHT22;51349;52.424;10.840;2023-02-28T04:06:33;-3.60;99.90
64869;DHT22;51349;52.424;10.840;2023-02-28T04:11:39;-3.60;99.90
64869;DHT22;51349;52.424;10.840;2023-02-28T04:16:41;-3.70;99.90
64869;DHT22;51349;52.424;10.840;2023-02-28T04:21:45;-3.60;99.90
64869;DHT22;51349;52.424;10.840;2023-02-28T04:26:47;-3.50;99.90
64869;DHT22;51349;52.424;10.840;2023-02-28T04:31:48;-3.20;99.90
64869;DHT22;51349;52.424;10.840;2023-02-28T04:36:50;-3.50;99.90
64869;DHT22;51349;52.424;10.840;2023-02-28T04:41:54;-3.60;99.90
64869;DHT22;51349;52.424;10.840;2023-02-28T04:46:54;-3.60;99.90
64869;DHT22;51349;52.424;10.840;2023-02-28T04:51:55;-3.80;99.90
64869;DHT22;51349;52.424;10.840;2023-02-28T04:56:56;-3.70;99.90
64869;DHT22;51349;52.424;10.840;2023-02-28T05:01:56;-3.80;99.90
64869;DHT22;51349;52.424;10.840;2023-02-28T05:06:57;-3.80;99.90
64869;DHT22;51349;52.424;10.840;2023-02-28T05:11:57;-3.90;99.90
64869;DHT22;51349;52.424;10.840;2023-02-28T05:16:58;-4.10;99.90
64869;DHT22;51349;52.424;10.840;2023-02-28T05:21:59;-4.30;99.90
64869;DHT22;51349;52.424;10.840;2023-02-28T05:26:59;-4.30;99.90
64869;DHT22;51349;52.424;10.840;2023-02-28T05:32:00;-4.40;99.90
64869;DHT22;51349;52.424;10.840;2023-02-28T05:37:01;-4.40;99.90
64869;DHT22;51349;52.424;10.840;2023-02-28T05:42:01;-4.50;99.90
64869;DHT22;51349;52.424;10.840;2023-02-28T05:47:02;-4.60;99.90
64869;DHT22;51349;52.424;10.840;2023-02-28T05:52:03;-4.60;99.90
64869;DHT22;51349;52.424;10.840;2023-02-28T05:57:04;-4.70;99.90
64869;DHT22;51349;52.424;10.840;2023-02-28T06:02:04;-4.80;99.90
64869;DHT22;51349;52.424;10.840;2023-02-28T06:07:05;-4.80;99.90
64869;DHT22;51349;52.424;10.840;2023-02-28T06:12:06;-5.00;99.90
64869;DHT22;51349;52.424;10.840;2023-02-28T06:17:09;-5.00;99.90
64869;DHT22;51349;52.424;10.840;2023-02-28T06:22:10;-5.10;99.90
64869;DHT22;51349;52.424;10.840;2023-02-28T06:27:10;-5.10;99.90
64869;DHT22;51349;52.424;10.840;2023-02-28T06:32:11;-5.10;99.90
64869;DHT22;51349;52.424;10.840;2023-02-28T06:37:12;-5.00;99.90
64869;DHT22;51349;52.424;10.840;2023-02-28T06:42:12;-5.00;99.90
64869;DHT22;51349;52.424;10.840;2023-02-28T06:47:13;-4.90;99.90
64869;DHT22;51349;52.424;10.840;2023-02-28T06:52:15;-5.00;99.90
64869;DHT22;51349;52.424;10.840;2023-02-28T06:57:16;-4.80;99.90
64869;DHT22;51349;52.424;10.840;2023-02-28T07:02:17;-4.80;99.90
64869;DHT22;51349;52.424;10.840;2023-02-28T07:07:17;-4.80;99.90
64869;DHT22;51349;52.424;10.840;2023-02-28T07:12:18;-4.60;99.90
64869;DHT22;51349;52.424;10.840;2023-02-28T07:17:19;-4.30;99.90
64869;DHT22;51349;52.424;10.840;2023-02-28T07:22:19;-4.10;99.90
64869;DHT22;51349;52.424;10.840;2023-02-28T07:27:20;-3.80;99.90
64869;DHT22;51349;52.424;10.840;2023-02-28T07:32:24;-3.80;99.90
64869;DHT22;51349;52.424;10.840;2023-02-28T07:37:24;-3.70;99.90
64869;DHT22;51349;52.424;10.840;2023-02-28T07:42:25;-3.40;99.90
64869;DHT22;51349;52.424;10.840;2023-02-28T07:47:26;-3.10;99.90
64869;DHT22;51349;52.424;10.840;2023-02-28T07:52:27;-2.70;99.90
64869;DHT22;51349;52.424;10.840;2023-02-28T07:57:27;-2.20;99.90
64869;DHT22;51349;52.424;10.840;2023-02-28T08:02:28;-1.80;99.90
64869;DHT22;51349;52.424;10.840;2023-02-28T08:07:29;-1.30;99.90
64869;DHT22;51349;52.424;10.840;2023-02-28T08:12:29;-0.80;99.90
64869;DHT22;51349;52.424;10.840;2023-02-28T08:17:30;-0.30;99.90
64869;DHT22;51349;52.424;10.840;2023-02-28T08:22:31;0.40;99.90
64869;DHT22;51349;52.424;10.840;2023-02-28T08:27:31;1.10;99.90
64869;DHT22;51349;52.424;10.840;2023-02-28T08:32:33;2.30;99.90
64869;DHT22;51349;52.424;10.840;2023-02-28T08:37:33;2.40;99.90
64869;DHT22;51349;52.424;10.840;2023-02-28T08:42:34;3.60;99.90
64869;DHT22;51349;52.424;10.840;2023-02-28T08:47:35;4.60;99.90
64869;DHT22;51349;52.424;10.840;2023-02-28T08:52:36;5.00;99.90
64869;DHT22;51349;52.424;10.840;2023-02-28T08:57:36;5.50;99.90
64869;DHT22;51349;52.424;10.840;2023-02-28T09:02:38;6.10;99.90
64869;DHT22;51349;52.424;10.840;2023-02-28T09:07:39;6.10;99.90
64869;DHT22;51349;52.424;10.840;2023-02-28T09:12:39;6.60;99.90
64869;DHT22;51349;52.424;10.840;2023-02-28T09:17:40;7.30;99.90
64869;DHT22;51349;52.424;10.840;2023-02-28T09:22:41;7.80;99.90
64869;DHT22;51349;52.424;10.840;2023-02-28T09:27:41;8.00;99.90
64869;DHT22;51349;52.424;10.840;2023-02-28T09:32:42;8.60;99.90
64869;DHT22;51349;52.424;10.840;2023-02-28T09:37:43;8.10;99.90
64869;DHT22;51349;52.424;10.840;2023-02-28T09:42:46;8.60;99.90
64869;DHT22;51349;52.424;10.840;2023-02-28T09:47:48;9.40;99.90
64869;DHT22;51349;52.424;10.840;2023-02-28T09:52:50;10.70;99.90
64869;DHT22;51349;52.424;10.840;2023-02-28T09:57:51;10.90;99.90
64869;DHT22;51349;52.424;10.840;2023-02-28T10:08:19;12.30;99.90
64869;DHT22;51349;52.424;10.840;2023-02-28T10:18:43;12.60;97.50
64869;DHT22;51349;52.424;10.840;2023-02-28T10:23:46;13.50;93.20
64869;DHT22;51349;52.424;10.840;2023-02-28T10:28:48;13.90;92.60
64869;DHT22;51349;52.424;10.840;2023-02-28T10:33:51;13.70;91.00
64869;DHT22;51349;52.424;10.840;2023-02-28T10:38:51;14.10;85.70
64869;DHT22;51349;52.424;10.840;2023-02-28T10:43:52;15.70;89.50
64869;DHT22;51349;52.424;10.840;2023-02-28T10:49:05;15.70;76.90
64869;DHT22;51349;52.424;10.840;2023-02-28T10:54:16;14.80;77.40
64869;DHT22;51349;52.424;10.840;2023-02-28T10:59:31;16.80;76.80
64869;DHT22;51349;52.424;10.840;2023-02-28T11:04:35;13.10;65.20
64869;DHT22;51349;52.424;10.840;2023-02-28T11:09:40;10.60;69.90
64869;DHT22;51349;52.424;10.840;2023-02-28T11:15:05;15.10;73.70
64869;DHT22;51349;52.424;10.840;2023-02-28T11:20:21;14.00;69.10
64869;DHT22;51349;52.424;10.840;2023-02-28T11:25:36;16.40;67.50
64869;DHT22;51349;52.424;10.840;2023-02-28T11:30:40;16.90;63.50
64869;DHT22;51349;52.424;10.840;2023-02-28T11:35:42;16.40;59.70
64869;DHT22;51349;52.424;10.840;2023-02-28T11:51:24;17.50;55.40
64869;DHT22;51349;52.424;10.840;2023-02-28T11:56:36;18.20;55.40
64869;DHT22;51349;52.424;10.840;2023-02-28T12:13:03;18.40;50.60
64869;DHT22;51349;52.424;10.840;2023-02-28T12:29:47;21.00;49.50
64869;DHT22;51349;52.424;10.840;2023-02-28T12:34:44;16.70;50.80
64869;DHT22;51349;52.424;10.840;2023-02-28T12:39:50;15.60;51.90
64869;DHT22;51349;52.424;10.840;2023-02-28T12:44:59;16.90;50.00
64869;DHT22;51349;52.424;10.840;2023-02-28T12:50:10;17.80;50.50
64869;DHT22;51349;52.424;10.840;2023-02-28T13:00:36;16.00;50.80
64869;DHT22;51349;52.424;10.840;2023-02-28T13:10:56;20.30;50.90
64869;DHT22;51349;52.424;10.840;2023-02-28T13:21:01;19.80;49.80
64869;DHT22;51349;52.424;10.840;2023-02-28T13:26:01;20.10;52.60
64869;DHT22;51349;52.424;10.840;2023-02-28T13:31:04;19.30;49.20
64869;DHT22;51349;52.424;10.840;2023-02-28T13:46:36;16.20;51.20
64869;DHT22;51349;52.424;10.840;2023-02-28T13:51:47;15.90;50.90
64869;DHT22;51349;52.424;10.840;2023-02-28T14:07:38;11.70;53.90
64869;DHT22;51349;52.424;10.840;2023-02-28T14:17:55;10.00;57.00
64869;DHT22;51349;52.424;10.840;2023-02-28T14:23:04;10.00;56.40
64869;DHT22;51349;52.424;10.840;2023-02-28T14:28:18;10.40;57.00
64869;DHT22;51349;52.424;10.840;2023-02-28T14:43:59;8.80;59.20
64869;DHT22;51349;52.424;10.840;2023-02-28T14:49:00;9.20;58.60
64869;DHT22;51349;52.424;10.840;2023-02-28T14:54:02;9.00;58.60
64869;DHT22;51349;52.424;10.840;2023-02-28T14:59:05;7.80;57.60
64869;DHT22;51349;52.424;10.840;2023-02-28T15:04:11;8.50;57.40
64869;DHT22;51349;52.424;10.840;2023-02-28T15:09:18;9.70;58.80
64869;DHT22;51349;52.424;10.840;2023-02-28T15:14:21;9.60;58.10
64869;DHT22;51349;52.424;10.840;2023-02-28T15:19:32;9.30;56.60
64869;DHT22;51349;52.424;10.840;2023-02-28T15:24:55;10.30;57.80
64869;DHT22;51349;52.424;10.840;2023-02-28T15:30:05;9.80;56.50
64869;DHT22;51349;52.424;10.840;2023-02-28T15:35:28;8.40;57.50
64869;DHT22;51349;52.424;10.840;2023-02-28T15:45:47;6.90;60.30
64869;DHT22;51349;52.424;10.840;2023-02-28T15:51:18;6.50;61.20
64869;DHT22;51349;52.424;10.840;2023-02-28T16:01:28;6.00;62.60
64869;DHT22;51349;52.424;10.840;2023-02-28T16:06:35;5.50;64.80
64869;DHT22;51349;52.424;10.840;2023-02-28T16:11:40;5.60;65.00
64869;DHT22;51349;52.424;10.840;2023-02-28T16:16:43;5.30;65.40
64869;DHT22;51349;52.424;10.840;2023-02-28T16:21:45;5.10;66.50
64869;DHT22;51349;52.424;10.840;2023-02-28T16:26:47;5.00;67.30
64869;DHT22;51349;52.424;10.840;2023-02-28T16:31:48;4.70;68.30
64869;DHT22;51349;52.424;10.840;2023-02-28T16:36:52;4.70;69.30
64869;DHT22;51349;52.424;10.840;2023-02-28T16:41:52;4.50;69.80
64869;DHT22;51349;52.424;10.840;2023-02-28T16:46:53;4.30;71.40
64869;DHT22;51349;52.424;10.840;2023-02-28T16:51:54;4.10;72.10
64869;DHT22;51349;52.424;10.840;2023-02-28T16:56:55;3.80;72.30
64869;DHT22;51349;52.424;10.840;2023-02-28T17:01:56;3.80;71.60
64869;DHT22;51349;52.424;10.840;2023-02-28T17:06:59;3.60;72.90
64869;DHT22;51349;52.424;10.840;2023-02-28T17:12:00;3.40;73.70
64869;DHT22;51349;52.424;10.840;2023-02-28T17:17:01;3.10;73.60
64869;DHT22;51349;52.424;10.840;2023-02-28T17:22:02;2.70;74.70
64869;DHT22;51349;52.424;10.840;2023-02-28T17:27:03;2.50;75.50
64869;DHT22;51349;52.424;10.840;2023-02-28T17:32:07;2.30;76.00
64869;DHT22;51349;52.424;10.840;2023-02-28T17:37:09;2.00;76.40
64869;DHT22;51349;52.424;10.840;2023-02-28T17:42:10;1.50;79.30
64869;DHT22;51349;52.424;10.840;2023-02-28T17:47:11;1.30;79.90
64869;DHT22;51349;52.424;10.840;2023-02-28T17:52:13;1.00;80.70
64869;DHT22;51349;52.424;10.840;2023-02-28T17:57:16;0.70;86.30
64869;DHT22;51349;52.424;10.840;2023-02-28T18:02:20;0.60;87.10
64869;DHT22;51349;52.424;10.840;2023-02-28T18:07:21;0.40;90.70
64869;DHT22;51349;52.424;10.840;2023-02-28T18:12:22;0.30;91.90
64869;DHT22;51349;52.424;10.840;2023-02-28T18:17:23;0.20;91.30
64869;DHT22;51349;52.424;10.840;2023-02-28T18:22:23;-0.20;94.80
64869;DHT22;51349;52.424;10.840;2023-02-28T18:27:24;-0.20;96.10
64869;DHT22;51349;52.424;10.840;2023-02-28T18:32:25;-0.30;97.50
64869;DHT22;51349;52.424;10.840;2023-02-28T18:37:25;-0.40;98.10
64869;DHT22;51349;52.424;10.840;2023-02-28T18:42:27;-0.50;99.80
64869;DHT22;51349;52.424;10.840;2023-02-28T18:47:27;-0.60;99.90
64869;DHT22;51349;52.424;10.840;2023-02-28T18:52:28;-0.80;99.90
64869;DHT22;51349;52.424;10.840;2023-02-28T18:57:29;-0.80;99.90
64869;DHT22;51349;52.424;10.840;2023-02-28T19:02:29;-0.80;99.90
64869;DHT22;51349;52.424;10.840;2023-02-28T19:07:30;-1.00;99.90
64869;DHT22;51349;52.424;10.840;2023-02-28T19:12:34;-1.10;99.90
64869;DHT22;51349;52.424;10.840;2023-02-28T19:17:35;-1.20;99.90
64869;DHT22;51349;52.424;10.840;2023-02-28T19:22:37;-1.20;99.90
64869;DHT22;51349;52.424;10.840;2023-02-28T19:27:38;-1.20;99.90
64869;DHT22;51349;52.424;10.840;2023-02-28T19:32:38;-1.30;99.90
64869;DHT22;51349;52.424;10.840;2023-02-28T19:37:40;-1.40;99.90
64869;DHT22;51349;52.424;10.840;2023-02-28T19:42:41;-1.50;99.90
64869;DHT22;51349;52.424;10.840;2023-02-28T19:47:41;-1.60;99.90
64869;DHT22;51349;52.424;10.840;2023-02-28T19:52:42;-1.60;99.90
64869;DHT22;51349;52.424;10.840;2023-02-28T19:57:44;-1.70;99.90
64869;DHT22;51349;52.424;10.840;2023-02-28T20:02:45;-1.80;99.90
64869;DHT22;51349;52.424;10.840;2023-02-28T20:07:45;-1.90;99.90
64869;DHT22;51349;52.424;10.840;2023-02-28T20:12:46;-2.00;99.90
64869;DHT22;51349;52.424;10.840;2023-02-28T20:17:46;-2.00;99.90
64869;DHT22;51349;52.424;10.840;2023-02-28T20:22:47;-2.10;99.90
64869;DHT22;51349;52.424;10.840;2023-02-28T20:27:48;-2.10;99.90
64869;DHT22;51349;52.424;10.840;2023-02-28T20:32:49;-2.20;99.90
64869;DHT22;51349;52.424;10.840;2023-02-28T20:37:49;-2.20;99.90
64869;DHT22;51349;52.424;10.840;2023-02-28T20:42:53;-2.30;99.90
64869;DHT22;51349;52.424;10.840;2023-02-28T20:47:54;-2.20;99.90
64869;DHT22;51349;52.424;10.840;2023-02-28T20:52:55;-2.40;99.90
64869;DHT22;51349;52.424;10.840;2023-02-28T20:57:55;-2.40;99.90
64869;DHT22;51349;52.424;10.840;2023-02-28T21:02:57;-2.50;99.90
64869;DHT22;51349;52.424;10.840;2023-02-28T21:07:58;-2.60;99.90
64869;DHT22;51349;52.424;10.840;2023-02-28T21:12:59;-2.70;99.90
64869;DHT22;51349;52.424;10.840;2023-02-28T21:17:59;-2.80;99.90
64869;DHT22;51349;52.424;10.840;2023-02-28T21:23:00;-2.80;99.90
64869;DHT22;51349;52.424;10.840;2023-02-28T21:28:01;-2.90;99.90
64869;DHT22;51349;52.424;10.840;2023-02-28T21:33:03;-2.90;99.90
64869;DHT22;51349;52.424;10.840;2023-02-28T21:38:03;-3.00;99.90
64869;DHT22;51349;52.424;10.840;2023-02-28T21:43:04;-3.00;99.90
64869;DHT22;51349;52.424;10.840;2023-02-28T21:48:05;-2.90;99.90
64869;DHT22;51349;52.424;10.840;2023-02-28T21:53:05;-3.00;99.90
64869;DHT22;51349;52.424;10.840;2023-02-28T21:58:06;-3.10;99.90
64869;DHT22;51349;52.424;10.840;2023-02-28T22:03:07;-3.20;99.90
64869;DHT22;51349;52.424;10.840;2023-02-28T22:08:07;-3.30;99.90
64869;DHT22;51349;52.424;10.840;2023-02-28T22:13:11;-3.40;99.90
64869;DHT22;51349;52.424;10.840;2023-02-28T22:18:12;-3.40;99.90
64869;DHT22;51349;52.424;10.840;2023-02-28T22:23:13;-3.50;99.90
64869;DHT22;51349;52.424;10.840;2023-02-28T22:28:14;-3.40;99.90
64869;DHT22;51349;52.424;10.840;2023-02-28T22:33:15;-3.60;99.90
64869;DHT22;51349;52.424;10.840;2023-02-28T22:38:16;-3.60;99.90
64869;DHT22;51349;52.424;10.840;2023-02-28T22:43:16;-3.60;99.90
64869;DHT22;51349;52.424;10.840;2023-02-28T22:48:23;-3.70;99.90
64869;DHT22;51349;52.424;10.840;2023-02-28T22:53:24;-3.80;99.90
64869;DHT22;51349;52.424;10.840;2023-02-28T22:58:24;-3.90;99.90
64869;DHT22;51349;52.424;10.840;2023-02-28T23:03:25;-4.00;99.90
64869;DHT22;51349;52.424;10.840;2023-02-28T23:08:26;-4.00;99.90
64869;DHT22;51349;52.424;10.840;2023-02-28T23:13:27;-4.10;99.90
64869;DHT22;51349;52.424;10.840;2023-02-28T23:18:27;-4.10;99.90
64869;DHT22;51349;52.424;10.840;2023-02-28T23:23:28;-4.20;99.90
64869;DHT22;51349;52.424;10.840;2023-02-28T23:28:32;-4.20;99.90
64869;DHT22;51349;52.424;10.840;2023-02-28T23:33:33;-4.30;99.90
64869;DHT22;51349;52.424;10.840;2023-02-28T23:38:34;-4.30;99.90
64869;DHT22;51349;52.424;10.840;2023-02-28T23:43:35;-4.30;99.90
64869;DHT22;51349;52.424;10.840;2023-02-28T23:48:37;-4.40;99.90
64869;DHT22;51349;52.424;10.840;2023-02-28T23:53:39;-4.50;99.90
64869;DHT22;51349;52.424;10.840;2023-02-28T23:58:41;-4.60;99.90
